createdAt,value
2023-12-02T00:00:08.609Z,4.10
2023-12-02T00:03:14.526Z,4.17
2023-12-02T00:06:17.669Z,4.03
2023-12-02T00:09:20.366Z,4.06
2023-12-02T00:12:23.333Z,4.12
2023-12-02T00:15:26.062Z,4.08
2023-12-02T00:18:29.185Z,4.05
2023-12-02T00:21:32.066Z,4.00
2023-12-02T00:24:35.051Z,4.02
2023-12-02T00:27:37.727Z,3.82
2023-12-02T00:30:40.682Z,3.80
2023-12-02T00:33:43.428Z,3.76
2023-12-02T00:36:49.916Z,3.87
2023-12-02T00:39:52.691Z,4.05
2023-12-02T00:42:55.610Z,3.97
2023-12-02T00:45:58.217Z,4.02
2023-12-02T00:49:01.280Z,4.05
2023-12-02T00:52:04.255Z,3.75
2023-12-02T00:55:07.857Z,4.02
2023-12-02T00:58:10.560Z,3.92
2023-12-02T01:01:13.509Z,3.93
2023-12-02T01:04:16.259Z,3.91
2023-12-02T01:07:19.243Z,3.93
2023-12-02T01:10:21.950Z,4.05
2023-12-02T01:13:24.938Z,4.07
2023-12-02T01:16:27.697Z,3.90
2023-12-02T01:19:33.209Z,3.89
2023-12-02T01:22:37.531Z,3.80
2023-12-02T01:25:40.512Z,3.91
2023-12-02T01:28:43.204Z,3.91
2023-12-02T01:31:46.122Z,3.97
2023-12-02T01:34:48.861Z,4.09
2023-12-02T01:37:51.970Z,4.02
2023-12-02T01:40:54.699Z,3.74
2023-12-02T01:43:57.677Z,3.86
2023-12-02T01:47:00.652Z,3.97
2023-12-02T01:50:04.920Z,3.89
2023-12-02T01:53:07.901Z,3.74
2023-12-02T01:56:11.818Z,3.62
2023-12-02T01:59:15.388Z,3.74
2023-12-02T02:02:18.377Z,3.60
2023-12-02T02:05:21.441Z,3.49
2023-12-02T02:08:24.145Z,3.48
2023-12-02T02:11:27.114Z,3.60
2023-12-02T02:14:29.767Z,3.51
2023-12-02T02:17:32.696Z,3.41
2023-12-02T02:20:35.300Z,3.33
2023-12-02T02:23:38.262Z,3.51
2023-12-02T02:26:40.925Z,3.31
2023-12-02T02:29:43.900Z,3.14
2023-12-02T02:32:46.636Z,3.08
2023-12-02T02:35:49.602Z,3.18
2023-12-02T02:38:52.273Z,3.12
2023-12-02T02:41:55.970Z,3.27
2023-12-02T02:44:58.774Z,3.08
2023-12-02T02:48:01.893Z,3.36
2023-12-02T02:51:04.736Z,3.18
2023-12-02T02:54:07.744Z,3.38
2023-12-02T02:57:10.823Z,3.37
2023-12-02T03:00:14.387Z,3.41
2023-12-02T03:03:17.053Z,3.12
2023-12-02T03:06:20.390Z,3.38
2023-12-02T03:09:23.110Z,3.34
2023-12-02T03:12:26.733Z,3.21
2023-12-02T03:15:29.379Z,3.31
2023-12-02T03:18:32.536Z,3.40
2023-12-02T03:21:35.322Z,3.46
2023-12-02T03:24:38.383Z,3.40
2023-12-02T03:27:41.484Z,3.35
2023-12-02T03:30:44.350Z,3.20
2023-12-02T03:33:46.991Z,3.13
2023-12-02T03:36:49.869Z,3.29
2023-12-02T03:39:52.487Z,3.28
2023-12-02T03:42:55.419Z,3.15
2023-12-02T03:45:58.043Z,3.11
2023-12-02T03:49:00.993Z,3.16
2023-12-02T03:52:03.812Z,3.22
2023-12-02T03:55:08.485Z,3.03
2023-12-02T03:58:11.481Z,2.90
2023-12-02T04:01:15.195Z,3.02
2023-12-02T04:04:19.295Z,2.83
2023-12-02T04:07:22.113Z,3.08
2023-12-02T04:10:25.069Z,3.18
2023-12-02T04:13:29.484Z,3.13
2023-12-02T04:16:32.342Z,3.08
2023-12-02T04:19:34.984Z,3.05
2023-12-02T04:22:40.183Z,3.11
2023-12-02T04:25:42.980Z,3.05
2023-12-02T04:28:45.917Z,3.26
2023-12-02T04:31:48.562Z,3.08
2023-12-02T04:34:51.572Z,3.07
2023-12-02T04:37:54.153Z,3.00
2023-12-02T04:40:57.075Z,3.01
2023-12-02T04:43:59.690Z,2.88
2023-12-02T04:47:02.709Z,2.84
2023-12-02T04:50:06.302Z,2.83
2023-12-02T04:53:10.425Z,3.05
2023-12-02T04:56:13.215Z,3.03
2023-12-02T04:59:16.131Z,3.07
2023-12-02T05:02:21.966Z,3.12
2023-12-02T05:05:24.956Z,3.23
2023-12-02T05:08:27.584Z,3.26
2023-12-02T05:11:30.649Z,3.10
2023-12-02T05:14:33.440Z,2.86
2023-12-02T05:17:36.876Z,2.89
2023-12-02T05:20:39.972Z,3.00
2023-12-02T05:23:43.036Z,2.68
2023-12-02T05:26:45.678Z,2.94
2023-12-02T05:29:48.595Z,2.90
2023-12-02T05:32:52.959Z,3.27
2023-12-02T05:35:56.105Z,3.28
2023-12-02T05:38:58.982Z,3.16
2023-12-02T05:42:02.123Z,3.30
2023-12-02T05:45:05.876Z,3.00
2023-12-02T05:48:09.027Z,2.67
2023-12-02T05:51:13.660Z,2.56
2023-12-02T05:54:16.774Z,2.73
2023-12-02T05:57:19.625Z,2.68
2023-12-02T06:00:22.609Z,2.55
2023-12-02T06:03:25.851Z,2.53
2023-12-02T06:06:28.727Z,2.58
2023-12-02T06:09:31.669Z,2.62
2023-12-02T06:12:34.664Z,2.87
2023-12-02T06:15:37.741Z,2.99
2023-12-02T06:18:40.551Z,2.76
2023-12-02T06:21:43.559Z,3.04
2023-12-02T06:24:46.194Z,3.13
2023-12-02T06:27:49.227Z,3.24
2023-12-02T06:30:51.960Z,3.10
2023-12-02T06:33:54.980Z,3.27
2023-12-02T06:36:57.638Z,3.25
2023-12-02T06:40:00.783Z,3.22
2023-12-02T06:43:03.427Z,3.32
2023-12-02T06:46:07.275Z,3.42
2023-12-02T06:49:09.981Z,3.52
2023-12-02T06:52:12.952Z,3.56
2023-12-02T06:58:21.530Z,3.82
2023-12-02T07:01:29.756Z,3.79
2023-12-02T07:04:33.448Z,3.71
2023-12-02T07:07:36.193Z,3.67
2023-12-02T07:10:39.339Z,3.77
2023-12-02T07:13:42.113Z,3.75
2023-12-02T07:16:45.154Z,3.59
2023-12-02T07:19:47.876Z,3.63
2023-12-02T07:22:51.061Z,3.70
2023-12-02T07:25:53.876Z,3.82
2023-12-02T07:28:56.828Z,3.79
2023-12-02T07:31:59.455Z,3.86
2023-12-02T07:35:02.623Z,4.03
2023-12-02T07:38:05.332Z,4.05
2023-12-02T07:41:11.566Z,4.41
2023-12-02T07:44:14.330Z,4.30
2023-12-02T07:47:17.409Z,4.51
2023-12-02T07:50:20.834Z,4.62
2023-12-02T07:53:23.782Z,4.88
2023-12-02T07:56:26.492Z,4.72
2023-12-02T07:59:29.558Z,4.93
2023-12-02T08:02:32.543Z,5.21
2023-12-02T08:08:41.119Z,5.49
2023-12-02T08:11:44.150Z,5.73
2023-12-02T08:14:46.822Z,5.88
2023-12-02T08:17:50.371Z,6.03
2023-12-02T08:20:53.293Z,6.22
2023-12-02T08:23:56.322Z,6.25
2023-12-02T08:26:59.746Z,6.77
2023-12-02T08:30:04.776Z,6.66
2023-12-02T08:33:07.535Z,6.52
2023-12-02T08:36:10.904Z,6.75
2023-12-02T08:39:14.479Z,6.86
2023-12-02T08:42:17.507Z,6.84
2023-12-02T08:45:20.154Z,7.00
2023-12-02T08:48:23.135Z,6.91
2023-12-02T08:51:25.955Z,6.92
2023-12-02T08:54:28.893Z,7.11
2023-12-02T08:57:31.556Z,6.91
2023-12-02T09:00:34.500Z,6.96
2023-12-02T09:03:37.232Z,7.05
2023-12-02T09:06:41.801Z,6.98
2023-12-02T09:09:44.755Z,6.93
2023-12-02T09:12:47.694Z,6.74
2023-12-02T09:15:50.735Z,7.00
2023-12-02T09:18:53.802Z,6.82
2023-12-02T09:21:56.504Z,7.07
2023-12-02T09:24:59.473Z,7.06
2023-12-02T09:28:11.585Z,7.26
2023-12-02T09:31:15.004Z,7.23
2023-12-02T09:34:43.964Z,7.38
2023-12-02T09:37:55.162Z,7.58
2023-12-02T09:41:14.008Z,7.76
2023-12-02T09:44:47.016Z,8.05
2023-12-02T09:48:06.837Z,7.91
2023-12-02T09:51:40.831Z,8.04
2023-12-02T09:54:53.616Z,8.10
2023-12-02T09:58:08.675Z,8.11
2023-12-02T10:01:44.039Z,8.14
2023-12-02T10:05:11.544Z,8.18
2023-12-02T10:08:26.476Z,8.39
2023-12-02T10:12:01.545Z,8.45
2023-12-02T10:15:07.193Z,8.47
2023-12-02T10:18:14.313Z,8.51
2023-12-02T10:21:20.735Z,8.64
2023-12-02T10:24:35.273Z,8.79
2023-12-02T10:27:40.469Z,8.95
2023-12-02T10:30:50.598Z,8.94
2023-12-02T10:34:02.070Z,9.00
2023-12-02T10:37:06.854Z,9.14
2023-12-02T10:40:12.716Z,9.13
2023-12-02T10:43:31.522Z,9.15
2023-12-02T10:46:35.417Z,9.22
2023-12-02T10:49:39.991Z,9.31
2023-12-02T10:53:17.888Z,9.45
2023-12-02T10:56:25.001Z,9.58
2023-12-02T10:59:34.336Z,9.61
2023-12-02T11:02:47.751Z,9.68
2023-12-02T11:05:50.289Z,9.76
2023-12-02T11:09:03.134Z,9.95
2023-12-02T11:12:31.996Z,10.16
2023-12-02T11:15:51.069Z,10.30
2023-12-02T11:19:07.912Z,10.43
2023-12-02T11:22:41.425Z,10.45
2023-12-02T11:25:52.732Z,10.52
2023-12-02T11:29:18.584Z,10.49
2023-12-02T11:33:14.511Z,10.65
2023-12-02T11:36:38.818Z,10.50
2023-12-02T11:39:54.841Z,10.41
2023-12-02T11:43:20.905Z,10.40
2023-12-02T11:46:27.001Z,10.51
2023-12-02T11:49:48.675Z,10.63
2023-12-02T11:53:04.624Z,10.64
2023-12-02T11:56:12.156Z,10.63
2023-12-02T11:59:17.669Z,10.60
2023-12-02T12:02:48.508Z,10.58
2023-12-02T12:06:13.885Z,10.48
2023-12-02T12:09:41.938Z,10.43
2023-12-02T12:12:48.854Z,10.29
2023-12-02T12:15:51.505Z,10.43
2023-12-02T12:18:54.472Z,10.25
2023-12-02T12:21:57.786Z,10.24
2023-12-02T12:25:00.743Z,10.14
2023-12-02T12:28:04.716Z,10.22
2023-12-02T12:31:11.281Z,10.20
2023-12-02T12:34:14.803Z,10.09
2023-12-02T12:37:18.201Z,10.12
2023-12-02T12:40:21.142Z,10.03
2023-12-02T12:43:24.524Z,9.95
2023-12-02T12:46:29.689Z,9.90
2023-12-02T12:49:34.809Z,9.80
2023-12-02T12:52:43.199Z,9.78
2023-12-02T12:55:52.255Z,9.70
2023-12-02T12:59:00.849Z,9.61
2023-12-02T13:02:26.780Z,9.57
2023-12-02T13:05:39.664Z,9.58
2023-12-02T13:09:18.164Z,9.46
2023-12-02T13:12:25.729Z,9.50
2023-12-02T13:15:29.794Z,9.58
2023-12-02T13:18:34.398Z,9.57
2023-12-02T13:21:39.655Z,9.48
2023-12-02T13:25:04.121Z,9.36
2023-12-02T13:28:22.438Z,9.31
2023-12-02T13:31:27.470Z,9.37
2023-12-02T13:34:45.516Z,9.26
2023-12-02T13:38:15.665Z,9.37
2023-12-02T13:41:48.258Z,9.27
2023-12-02T13:44:56.557Z,9.19
2023-12-02T13:48:22.835Z,9.10
2023-12-02T13:51:30.775Z,8.98
2023-12-02T13:54:46.198Z,9.05
2023-12-02T13:58:08.291Z,8.97
2023-12-02T14:01:29.851Z,9.00
2023-12-02T14:05:08.176Z,8.91
2023-12-02T14:08:18.377Z,8.73
2023-12-02T14:11:51.719Z,8.86
2023-12-02T14:15:07.829Z,8.74
2023-12-02T14:18:11.563Z,8.61
2023-12-02T14:21:39.640Z,8.45
2023-12-02T14:25:04.604Z,8.44
2023-12-02T14:28:28.697Z,8.33
2023-12-02T14:31:46.673Z,8.28
2023-12-02T14:35:05.878Z,8.12
2023-12-02T14:38:34.438Z,7.96
2023-12-02T14:42:09.585Z,7.47
2023-12-02T14:45:13.528Z,6.89
2023-12-02T14:48:17.735Z,6.34
2023-12-02T14:51:21.139Z,7.19
2023-12-02T14:54:25.806Z,6.12
2023-12-02T14:57:30.624Z,5.77
2023-12-02T15:00:34.877Z,5.81
2023-12-02T15:03:38.512Z,5.75
2023-12-02T15:06:41.965Z,5.68
2023-12-02T15:09:45.019Z,5.74
2023-12-02T15:12:53.312Z,5.89
2023-12-02T15:15:57.705Z,6.53
2023-12-02T15:19:11.691Z,5.94
2023-12-02T15:22:17.616Z,5.59
2023-12-02T15:25:20.577Z,5.38
2023-12-02T15:28:44.258Z,5.39
2023-12-02T15:31:47.601Z,5.52
2023-12-02T15:34:50.641Z,5.67
2023-12-02T15:37:56.254Z,5.74
2023-12-02T15:41:00.046Z,5.68
2023-12-02T15:44:02.998Z,5.39
2023-12-02T15:47:06.189Z,5.68
2023-12-02T15:50:09.531Z,5.80
2023-12-02T15:53:12.797Z,5.77
2023-12-02T15:56:18.120Z,5.93
2023-12-02T15:59:23.872Z,5.81
2023-12-02T16:02:26.613Z,5.34
2023-12-02T16:05:30.980Z,5.53
2023-12-02T16:08:34.453Z,5.46
2023-12-02T16:11:37.797Z,5.55
2023-12-02T16:14:47.481Z,5.33
2023-12-02T16:17:50.518Z,5.48
2023-12-02T16:20:53.704Z,5.37
2023-12-02T16:23:56.771Z,5.51
2023-12-02T16:26:59.983Z,5.59
2023-12-02T16:30:04.234Z,5.46
2023-12-02T16:33:07.156Z,5.63
2023-12-02T16:36:14.358Z,5.45
2023-12-02T16:39:18.644Z,5.63
2023-12-02T16:42:21.714Z,5.44
2023-12-02T16:45:26.496Z,5.51
2023-12-02T16:48:30.309Z,5.53
2023-12-02T16:51:34.017Z,5.68
2023-12-02T16:54:36.948Z,5.69
2023-12-02T16:57:41.550Z,5.85
2023-12-02T17:00:46.509Z,5.79
2023-12-02T17:03:49.256Z,5.72
2023-12-02T17:06:53.561Z,5.71
2023-12-02T17:09:56.367Z,5.88
2023-12-02T17:12:59.370Z,5.91
2023-12-02T17:16:02.208Z,6.05
2023-12-02T17:19:10.130Z,5.86
2023-12-02T17:22:17.529Z,5.49
2023-12-02T17:25:50.429Z,5.58
2023-12-02T17:28:53.252Z,5.47
2023-12-02T17:31:57.591Z,5.09
2023-12-02T17:35:00.579Z,5.20
2023-12-02T17:38:05.194Z,4.93
2023-12-02T17:41:08.339Z,4.99
2023-12-02T17:44:11.695Z,4.75
2023-12-02T17:47:14.605Z,4.97
2023-12-02T17:50:18.142Z,4.98
2023-12-02T17:53:23.319Z,5.19
2023-12-02T17:56:26.954Z,4.94
2023-12-02T17:59:29.966Z,4.83
2023-12-02T18:02:33.335Z,4.72
2023-12-02T18:05:36.599Z,4.32
2023-12-02T18:08:39.616Z,4.49
2023-12-02T18:11:42.900Z,4.51
2023-12-02T18:14:45.733Z,4.58
2023-12-02T18:17:48.914Z,4.48
2023-12-02T18:20:53.672Z,4.39
2023-12-02T18:23:58.903Z,4.30
2023-12-02T18:27:01.732Z,3.98
2023-12-02T18:30:05.150Z,3.98
2023-12-02T18:33:08.367Z,3.78
2023-12-02T18:36:11.833Z,4.07
2023-12-02T18:39:16.500Z,3.89
2023-12-02T18:42:19.532Z,3.68
2023-12-02T18:45:22.308Z,3.46
2023-12-02T18:48:25.395Z,3.35
2023-12-02T18:51:29.679Z,3.55
2023-12-02T18:54:33.279Z,3.48
2023-12-02T18:57:36.439Z,3.11
2023-12-02T19:00:39.684Z,3.09
2023-12-02T19:03:42.751Z,3.23
2023-12-02T19:06:45.787Z,3.31
2023-12-02T19:09:48.560Z,3.55
2023-12-02T19:12:51.629Z,3.10
2023-12-02T19:15:54.224Z,3.41
2023-12-02T19:18:59.142Z,3.24
2023-12-02T19:22:02.108Z,3.17
2023-12-02T19:25:05.617Z,2.92
2023-12-02T19:28:08.521Z,2.79
2023-12-02T19:31:11.864Z,2.76
2023-12-02T19:34:14.621Z,2.91
2023-12-02T19:37:17.733Z,2.28
2023-12-02T19:40:20.443Z,2.38
2023-12-02T19:43:25.063Z,2.36
2023-12-02T19:46:28.347Z,1.98
2023-12-02T19:49:31.832Z,1.54
2023-12-02T19:52:34.736Z,1.59
2023-12-02T19:55:38.575Z,1.54
2023-12-02T19:58:41.211Z,1.13
2023-12-02T20:01:44.329Z,1.18
2023-12-02T20:04:47.433Z,1.31
2023-12-02T20:07:50.377Z,0.93
2023-12-02T20:10:53.471Z,1.03
2023-12-02T20:13:57.556Z,1.10
2023-12-02T20:17:00.600Z,1.10
2023-12-02T20:20:05.307Z,1.04
2023-12-02T20:23:08.359Z,1.18
2023-12-02T20:26:11.293Z,0.91
2023-12-02T20:29:14.286Z,0.94
2023-12-02T20:32:16.968Z,0.79
2023-12-02T20:35:20.041Z,0.87
2023-12-02T20:38:22.739Z,1.09
2023-12-02T20:41:26.221Z,0.91
2023-12-02T20:44:28.976Z,0.90
2023-12-02T20:47:32.411Z,1.35
2023-12-02T20:50:35.079Z,1.11
2023-12-02T20:53:39.219Z,1.19
2023-12-02T20:56:42.162Z,1.29
2023-12-02T20:59:45.114Z,1.08
2023-12-02T21:02:47.868Z,0.78
2023-12-02T21:05:50.917Z,0.85
2023-12-02T21:08:53.659Z,1.04
2023-12-02T21:11:56.577Z,0.88
2023-12-02T21:14:59.277Z,1.13
2023-12-02T21:18:03.981Z,1.42
2023-12-02T21:21:06.973Z,0.89
2023-12-02T21:24:11.040Z,1.24
2023-12-02T21:27:15.136Z,1.17
2023-12-02T21:30:31.742Z,1.24
2023-12-02T21:33:36.428Z,1.40
2023-12-02T21:36:39.631Z,1.50
2023-12-02T21:39:43.100Z,1.68
2023-12-02T21:42:50.263Z,1.27
2023-12-02T21:45:53.277Z,1.60
2023-12-02T21:49:01.314Z,1.57
2023-12-02T21:52:04.693Z,1.59
2023-12-02T21:55:16.272Z,1.48
2023-12-02T21:58:19.392Z,1.52
2023-12-02T22:01:22.356Z,1.70
2023-12-02T22:04:30.098Z,1.82
2023-12-02T22:07:34.409Z,1.81
2023-12-02T22:10:37.318Z,1.65
2023-12-02T22:13:41.987Z,1.14
2023-12-02T22:16:45.803Z,1.36
2023-12-02T22:19:49.785Z,1.27
2023-12-02T22:22:56.174Z,1.13
2023-12-02T22:25:58.808Z,1.10
2023-12-02T22:29:08.984Z,1.08
2023-12-02T22:32:29.714Z,1.29
2023-12-02T22:36:10.824Z,1.22
2023-12-02T22:39:34.733Z,1.33
2023-12-02T22:42:37.779Z,1.14
2023-12-02T22:45:41.787Z,1.26
2023-12-02T22:48:47.031Z,1.15
2023-12-02T22:51:50.757Z,1.11
2023-12-02T22:54:53.806Z,0.79
2023-12-02T22:57:56.469Z,1.02
2023-12-02T23:01:01.625Z,1.04
2023-12-02T23:04:52.044Z,0.76
2023-12-02T23:07:56.991Z,1.26
2023-12-02T23:10:59.998Z,1.41
2023-12-02T23:14:05.082Z,1.52
2023-12-02T23:17:13.634Z,1.04
2023-12-02T23:20:30.946Z,1.33
2023-12-02T23:23:33.759Z,0.98
2023-12-02T23:26:36.758Z,0.82
2023-12-02T23:29:39.384Z,1.45
2023-12-02T23:32:42.511Z,1.23
2023-12-02T23:35:45.218Z,1.36
2023-12-02T23:38:50.326Z,1.54
2023-12-02T23:41:58.436Z,1.61
2023-12-02T23:45:01.352Z,1.73
2023-12-02T23:48:04.888Z,1.79
2023-12-02T23:51:09.092Z,1.33
2023-12-02T23:54:11.802Z,1.45
2023-12-02T23:57:15.180Z,1.29
